createdAt,value
2019-03-31T00:00:24.619Z,10.61
2019-03-31T00:01:24.614Z,10.62
2019-03-31T00:02:24.584Z,10.57
2019-03-31T00:03:24.552Z,10.65
2019-03-31T00:04:24.530Z,10.57
2019-03-31T00:05:24.567Z,10.46
2019-03-31T00:06:25.178Z,10.53
2019-03-31T00:07:24.552Z,10.48
2019-03-31T00:08:24.518Z,10.43
2019-03-31T00:09:24.517Z,10.34
2019-03-31T00:10:24.479Z,10.45
2019-03-31T00:11:24.614Z,10.28
2019-03-31T00:12:24.548Z,10.25
2019-03-31T00:13:24.517Z,10.25
2019-03-31T00:14:24.469Z,10.30
2019-03-31T00:15:24.416Z,10.25
2019-03-31T00:16:24.428Z,10.28
2019-03-31T00:17:24.459Z,10.21
2019-03-31T00:18:24.391Z,10.17
2019-03-31T00:19:24.458Z,10.23
2019-03-31T00:20:24.456Z,10.21
2019-03-31T00:21:24.401Z,10.23
2019-03-31T00:22:24.425Z,10.24
2019-03-31T00:23:24.378Z,10.21
2019-03-31T00:24:24.343Z,10.17
2019-03-31T00:25:24.349Z,10.15
2019-03-31T00:26:24.322Z,10.13
2019-03-31T00:27:24.334Z,10.15
2019-03-31T00:28:24.369Z,10.18
2019-03-31T00:29:24.303Z,10.21
2019-03-31T00:30:24.285Z,10.07
2019-03-31T00:31:24.292Z,10.21
2019-03-31T00:32:24.291Z,10.18
2019-03-31T00:33:24.253Z,10.23
2019-03-31T00:34:24.220Z,10.27
2019-03-31T00:35:24.253Z,10.28
2019-03-31T00:36:24.226Z,10.38
2019-03-31T00:37:24.212Z,10.42
2019-03-31T00:38:24.222Z,10.39
2019-03-31T00:39:24.167Z,10.46
2019-03-31T00:40:24.227Z,10.38
2019-03-31T00:41:24.175Z,10.38
2019-03-31T00:42:24.179Z,10.42
2019-03-31T00:43:24.172Z,10.48
2019-03-31T00:44:24.165Z,10.38
2019-03-31T00:45:24.179Z,10.36
2019-03-31T00:46:24.159Z,10.33
2019-03-31T00:47:24.105Z,10.39
2019-03-31T00:48:24.109Z,10.25
2019-03-31T00:49:24.090Z,10.28
2019-03-31T00:50:24.097Z,10.30
2019-03-31T00:51:24.048Z,10.20
2019-03-31T00:52:24.038Z,10.25
2019-03-31T00:53:24.077Z,10.27
2019-03-31T00:54:24.064Z,10.23
2019-03-31T00:55:24.025Z,10.30
2019-03-31T00:56:24.004Z,10.30
2019-03-31T00:57:24.020Z,10.30
2019-03-31T00:58:23.987Z,10.30
2019-03-31T00:59:23.983Z,10.30
2019-03-31T01:00:23.992Z,10.27
2019-03-31T01:01:35.900Z,10.24
2019-03-31T01:02:24.992Z,10.43
2019-03-31T01:03:23.951Z,10.38
2019-03-31T01:04:23.908Z,10.36
2019-03-31T01:05:23.940Z,10.39
2019-03-31T01:06:23.924Z,10.28
2019-03-31T01:07:23.888Z,10.23
2019-03-31T01:08:23.952Z,10.28
2019-03-31T01:09:23.860Z,10.23
2019-03-31T01:10:23.853Z,10.13
2019-03-31T01:11:23.855Z,10.30
2019-03-31T01:12:23.869Z,10.17
2019-03-31T01:13:23.861Z,10.25
2019-03-31T01:14:23.788Z,10.21
2019-03-31T01:15:23.800Z,10.30
2019-03-31T01:16:23.806Z,10.38
2019-03-31T01:17:23.767Z,10.33
2019-03-31T01:18:23.750Z,10.34
2019-03-31T01:19:23.751Z,10.39
2019-03-31T01:20:23.749Z,10.38
2019-03-31T01:21:23.723Z,10.49
2019-03-31T01:22:23.711Z,10.39
2019-03-31T01:23:23.696Z,10.49
2019-03-31T01:24:23.727Z,10.42
2019-03-31T01:25:23.686Z,10.49
2019-03-31T01:26:23.727Z,10.38
2019-03-31T01:27:23.657Z,10.42
2019-03-31T01:28:23.641Z,10.39
2019-03-31T01:29:23.647Z,10.48
2019-03-31T01:30:23.622Z,10.38
2019-03-31T01:31:23.604Z,10.41
2019-03-31T01:32:23.621Z,10.36
2019-03-31T01:33:23.573Z,10.34
2019-03-31T01:34:23.614Z,10.27
2019-03-31T01:35:23.578Z,10.30
2019-03-31T01:36:23.553Z,10.21
2019-03-31T01:37:23.595Z,10.21
2019-03-31T01:38:23.531Z,10.28
2019-03-31T01:39:23.538Z,10.17
2019-03-31T01:40:23.515Z,10.17
2019-03-31T01:41:23.511Z,10.17
2019-03-31T01:42:23.481Z,10.17
2019-03-31T01:43:23.497Z,10.13
2019-03-31T01:44:23.522Z,10.09
2019-03-31T01:45:23.456Z,10.18
2019-03-31T01:46:23.446Z,10.09
2019-03-31T01:47:23.459Z,10.18
2019-03-31T01:48:23.449Z,10.07
2019-03-31T01:49:23.440Z,10.18
2019-03-31T01:50:23.400Z,10.09
2019-03-31T01:51:23.394Z,10.09
2019-03-31T01:52:23.403Z,10.15
2019-03-31T01:53:23.378Z,10.10
2019-03-31T01:54:23.361Z,10.07
2019-03-31T01:55:23.348Z,10.12
2019-03-31T01:56:23.350Z,10.03
2019-03-31T01:57:23.378Z,10.09
2019-03-31T01:58:23.347Z,10.06
2019-03-31T01:59:23.351Z,10.07
2019-03-31T02:00:23.296Z,10.06
2019-03-31T02:01:23.298Z,10.00
2019-03-31T02:02:23.372Z,10.00
2019-03-31T02:03:23.335Z,10.05
2019-03-31T02:04:23.289Z,10.03
2019-03-31T02:05:23.257Z,9.97
2019-03-31T02:06:23.260Z,10.02
2019-03-31T02:07:23.258Z,10.06
2019-03-31T02:08:23.210Z,9.99
2019-03-31T02:09:23.251Z,9.99
2019-03-31T02:10:23.415Z,10.06
2019-03-31T02:11:23.222Z,10.03
2019-03-31T02:12:23.262Z,9.97
2019-03-31T02:13:23.232Z,9.92
2019-03-31T02:14:23.205Z,9.92
2019-03-31T02:15:23.181Z,9.92
2019-03-31T02:16:23.229Z,9.91
2019-03-31T02:17:23.183Z,9.88
2019-03-31T02:18:23.117Z,10.03
2019-03-31T02:19:23.123Z,9.91
2019-03-31T02:20:23.175Z,9.90
2019-03-31T02:21:23.153Z,9.84
2019-03-31T02:22:23.101Z,9.88
2019-03-31T02:23:23.073Z,9.91
2019-03-31T02:24:23.081Z,9.88
2019-03-31T02:25:23.032Z,9.95
2019-03-31T02:26:23.026Z,9.82
2019-03-31T02:27:23.055Z,9.84
2019-03-31T02:28:23.050Z,9.77
2019-03-31T02:29:23.026Z,9.70
2019-03-31T02:30:23.047Z,9.70
2019-03-31T02:31:23.025Z,9.76
2019-03-31T02:32:24.712Z,9.72
2019-03-31T02:33:22.992Z,9.64
2019-03-31T02:34:22.962Z,9.56
2019-03-31T02:35:22.992Z,9.51
2019-03-31T02:36:22.984Z,9.48
2019-03-31T02:37:22.897Z,9.47
2019-03-31T02:38:22.939Z,9.47
2019-03-31T02:39:23.038Z,9.47
2019-03-31T02:40:22.914Z,9.49
2019-03-31T02:41:22.904Z,9.47
2019-03-31T02:42:22.911Z,9.39
2019-03-31T02:43:22.864Z,9.39
2019-03-31T02:44:23.015Z,9.34
2019-03-31T02:45:22.827Z,9.31
2019-03-31T02:46:22.840Z,9.31
2019-03-31T02:47:22.843Z,9.33
2019-03-31T02:48:22.841Z,9.27
2019-03-31T02:49:22.786Z,9.26
2019-03-31T02:50:22.785Z,9.33
2019-03-31T02:51:22.771Z,9.27
2019-03-31T02:52:22.780Z,9.24
2019-03-31T02:53:22.784Z,9.29
2019-03-31T02:54:22.739Z,9.19
2019-03-31T02:55:22.786Z,9.12
2019-03-31T02:56:22.724Z,9.27
2019-03-31T02:57:22.686Z,9.26
2019-03-31T02:58:22.722Z,9.27
2019-03-31T02:59:22.673Z,9.30
2019-03-31T03:00:22.689Z,9.30
2019-03-31T03:01:22.695Z,9.33
2019-03-31T03:02:40.212Z,9.33
2019-03-31T03:03:23.682Z,9.31
2019-03-31T03:04:22.691Z,9.27
2019-03-31T03:05:22.602Z,9.29
2019-03-31T03:06:22.625Z,9.21
2019-03-31T03:07:22.620Z,9.21
2019-03-31T03:08:22.678Z,9.27
2019-03-31T03:09:22.583Z,9.18
2019-03-31T03:10:22.608Z,9.15
2019-03-31T03:11:22.544Z,9.15
2019-03-31T03:12:22.605Z,9.15
2019-03-31T03:13:22.596Z,9.11
2019-03-31T03:14:22.517Z,8.97
2019-03-31T03:15:22.530Z,9.11
2019-03-31T03:16:22.576Z,8.97
2019-03-31T03:17:22.474Z,9.05
2019-03-31T03:18:22.510Z,8.92
2019-03-31T03:19:22.602Z,8.96
2019-03-31T03:20:22.457Z,8.97
2019-03-31T03:21:24.592Z,8.95
2019-03-31T03:22:22.413Z,8.95
2019-03-31T03:23:22.422Z,8.99
2019-03-31T03:24:22.450Z,8.93
2019-03-31T03:25:22.479Z,8.92
2019-03-31T03:26:22.402Z,8.84
2019-03-31T03:27:22.454Z,8.81
2019-03-31T03:28:22.509Z,8.74
2019-03-31T03:29:22.420Z,8.79
2019-03-31T03:30:22.450Z,8.72
2019-03-31T03:31:22.434Z,8.66
2019-03-31T03:32:22.604Z,8.64
2019-03-31T03:33:22.380Z,8.61
2019-03-31T03:34:22.437Z,8.57
2019-03-31T03:35:22.354Z,8.53
2019-03-31T03:36:22.301Z,8.54
2019-03-31T03:37:22.319Z,8.53
2019-03-31T03:38:22.286Z,8.49
2019-03-31T03:39:22.282Z,8.46
2019-03-31T03:40:22.313Z,8.41
2019-03-31T03:41:22.255Z,8.39
2019-03-31T03:42:22.307Z,8.39
2019-03-31T03:43:22.259Z,8.35
2019-03-31T03:44:22.259Z,8.35
2019-03-31T03:45:22.374Z,8.27
2019-03-31T03:46:22.256Z,8.32
2019-03-31T03:47:22.184Z,8.32
2019-03-31T03:48:22.265Z,8.38
2019-03-31T03:49:22.150Z,8.27
2019-03-31T03:50:22.206Z,8.28
2019-03-31T03:51:22.275Z,8.31
2019-03-31T03:52:22.136Z,8.23
2019-03-31T03:53:22.122Z,8.17
2019-03-31T03:54:22.142Z,8.32
2019-03-31T03:55:22.106Z,8.31
2019-03-31T03:56:22.240Z,8.18
2019-03-31T03:57:22.065Z,8.17
2019-03-31T03:58:22.213Z,8.18
2019-03-31T03:59:22.083Z,8.05
2019-03-31T04:00:22.067Z,8.05
2019-03-31T04:01:22.074Z,8.02
2019-03-31T04:02:22.022Z,8.03
2019-03-31T04:03:30.268Z,7.99
2019-03-31T04:04:23.041Z,7.95
2019-03-31T04:05:22.031Z,7.99
2019-03-31T04:06:21.981Z,7.87
2019-03-31T04:07:22.015Z,7.85
2019-03-31T04:08:21.977Z,7.91
2019-03-31T04:09:21.986Z,7.96
2019-03-31T04:10:21.964Z,7.98
2019-03-31T04:11:22.102Z,8.06
2019-03-31T04:12:21.944Z,8.06
2019-03-31T04:13:21.963Z,8.05
2019-03-31T04:14:21.944Z,7.99
2019-03-31T04:15:21.909Z,8.03
2019-03-31T04:16:21.875Z,8.02
2019-03-31T04:17:21.875Z,8.01
2019-03-31T04:18:21.953Z,8.01
2019-03-31T04:19:21.852Z,7.95
2019-03-31T04:20:22.097Z,8.06
2019-03-31T04:21:21.836Z,8.06
2019-03-31T04:22:21.812Z,8.09
2019-03-31T04:23:21.817Z,8.09
2019-03-31T04:24:21.837Z,8.05
2019-03-31T04:25:21.821Z,8.09
2019-03-31T04:26:21.828Z,8.02
2019-03-31T04:27:21.752Z,8.13
2019-03-31T04:28:21.756Z,8.05
2019-03-31T04:29:21.743Z,8.09
2019-03-31T04:30:21.730Z,8.05
2019-03-31T04:31:21.759Z,8.03
2019-03-31T04:32:21.706Z,8.01
2019-03-31T04:33:21.693Z,7.99
2019-03-31T04:34:21.750Z,7.95
2019-03-31T04:35:21.715Z,7.93
2019-03-31T04:36:21.650Z,7.90
2019-03-31T04:37:21.634Z,7.93
2019-03-31T04:38:21.641Z,7.87
2019-03-31T04:39:21.800Z,7.84
2019-03-31T04:40:21.594Z,7.83
2019-03-31T04:41:21.640Z,7.80
2019-03-31T04:42:21.722Z,7.83
2019-03-31T04:43:21.558Z,7.81
2019-03-31T04:44:21.592Z,7.81
2019-03-31T04:45:21.580Z,7.81
2019-03-31T04:46:21.573Z,7.78
2019-03-31T04:47:21.548Z,7.72
2019-03-31T04:48:21.503Z,7.67
2019-03-31T04:49:21.535Z,7.67
2019-03-31T04:50:21.546Z,7.69
2019-03-31T04:51:21.573Z,7.72
2019-03-31T04:52:21.513Z,7.77
2019-03-31T04:53:21.500Z,7.67
2019-03-31T04:54:21.467Z,7.64
2019-03-31T04:55:21.478Z,7.70
2019-03-31T04:56:21.458Z,7.59
2019-03-31T04:57:21.477Z,7.70
2019-03-31T04:58:21.421Z,7.59
2019-03-31T05:00:38.501Z,7.69
2019-03-31T05:01:38.574Z,7.72
2019-03-31T05:02:38.506Z,7.66
2019-03-31T05:03:38.476Z,7.62
2019-03-31T05:04:38.483Z,7.66
2019-03-31T05:05:38.473Z,7.67
2019-03-31T05:06:38.447Z,7.64
2019-03-31T05:07:38.472Z,7.62
2019-03-31T05:08:38.514Z,7.58
2019-03-31T05:09:38.419Z,7.61
2019-03-31T05:10:38.409Z,7.69
2019-03-31T05:11:38.403Z,7.59
2019-03-31T05:12:38.423Z,7.66
2019-03-31T05:13:38.408Z,7.64
2019-03-31T05:14:38.355Z,7.59
2019-03-31T05:15:38.358Z,7.62
2019-03-31T05:16:38.347Z,7.47
2019-03-31T05:17:38.342Z,7.61
2019-03-31T05:18:38.428Z,7.58
2019-03-31T05:19:38.313Z,7.47
2019-03-31T05:20:38.309Z,7.48
2019-03-31T05:21:38.299Z,7.59
2019-03-31T05:22:38.317Z,7.53
2019-03-31T05:23:38.312Z,7.61
2019-03-31T05:24:38.255Z,7.58
2019-03-31T05:25:38.258Z,7.59
2019-03-31T05:26:38.259Z,7.62
2019-03-31T05:27:38.234Z,7.61
2019-03-31T05:28:38.250Z,7.61
2019-03-31T05:29:38.241Z,7.61
2019-03-31T05:30:38.213Z,7.66
2019-03-31T05:31:38.218Z,7.64
2019-03-31T05:32:38.276Z,7.72
2019-03-31T05:33:38.214Z,7.72
2019-03-31T05:34:38.160Z,7.77
2019-03-31T05:35:38.263Z,7.67
2019-03-31T05:36:38.202Z,7.64
2019-03-31T05:37:50.300Z,7.75
2019-03-31T05:38:39.135Z,7.72
2019-03-31T05:39:38.109Z,7.69
2019-03-31T05:40:38.094Z,7.72
2019-03-31T05:41:38.094Z,7.67
2019-03-31T05:42:38.113Z,7.75
2019-03-31T05:43:38.058Z,7.77
2019-03-31T05:44:38.065Z,7.74
2019-03-31T05:45:38.076Z,7.72
2019-03-31T05:46:38.035Z,7.72
2019-03-31T05:47:38.051Z,7.70
2019-03-31T05:48:38.084Z,7.72
2019-03-31T05:49:37.986Z,7.66
2019-03-31T05:50:38.134Z,7.72
2019-03-31T05:51:38.073Z,7.67
2019-03-31T05:52:37.977Z,7.67
2019-03-31T05:53:37.967Z,7.70
2019-03-31T05:54:37.988Z,7.77
2019-03-31T05:55:37.936Z,7.81
2019-03-31T05:56:38.001Z,7.74
2019-03-31T05:57:37.984Z,7.72
2019-03-31T05:58:37.950Z,7.69
2019-03-31T05:59:38.947Z,7.61
2019-03-31T06:00:37.922Z,7.77
2019-03-31T06:01:37.879Z,7.77
2019-03-31T06:02:37.865Z,7.78
2019-03-31T06:03:37.922Z,7.80
2019-03-31T06:04:38.018Z,7.90
2019-03-31T06:05:37.859Z,7.93
2019-03-31T06:06:37.825Z,7.75
2019-03-31T06:07:37.967Z,7.69
2019-03-31T06:08:37.879Z,7.80
2019-03-31T06:09:37.840Z,7.81
2019-03-31T06:10:37.783Z,7.87
2019-03-31T06:11:37.922Z,7.91
2019-03-31T06:12:37.759Z,7.98
2019-03-31T06:13:37.933Z,8.01
2019-03-31T06:14:37.753Z,8.03
2019-03-31T06:15:37.741Z,8.09
2019-03-31T06:16:37.771Z,8.08
2019-03-31T06:17:38.377Z,8.17
2019-03-31T06:18:37.962Z,8.24
2019-03-31T06:19:38.246Z,8.17
2019-03-31T06:20:37.762Z,8.20
2019-03-31T06:21:37.806Z,8.26
2019-03-31T06:22:37.669Z,8.31
2019-03-31T06:23:37.661Z,8.28
2019-03-31T06:24:37.649Z,8.27
2019-03-31T06:25:37.608Z,8.20
2019-03-31T06:26:37.665Z,8.32
2019-03-31T06:27:37.621Z,8.27
2019-03-31T06:28:37.722Z,8.28
2019-03-31T06:29:37.575Z,8.21
2019-03-31T06:30:38.308Z,8.27
2019-03-31T06:31:38.249Z,8.28
2019-03-31T06:32:37.589Z,8.27
2019-03-31T06:33:37.568Z,8.27
2019-03-31T06:34:47.332Z,8.35
2019-03-31T06:35:38.580Z,8.21
2019-03-31T06:36:37.512Z,8.32
2019-03-31T06:37:37.974Z,8.34
2019-03-31T06:38:37.530Z,8.39
2019-03-31T06:39:38.260Z,8.52
2019-03-31T06:40:37.639Z,8.60
2019-03-31T06:41:37.532Z,8.59
2019-03-31T06:42:37.436Z,8.69
2019-03-31T06:43:37.470Z,8.69
2019-03-31T06:44:38.239Z,8.77
2019-03-31T06:45:37.517Z,8.81
2019-03-31T06:46:37.427Z,8.99
2019-03-31T06:47:37.554Z,9.08
2019-03-31T06:48:38.254Z,9.08
2019-03-31T06:49:37.512Z,9.08
2019-03-31T06:50:37.558Z,9.22
2019-03-31T06:51:37.374Z,9.31
2019-03-31T06:52:37.391Z,9.37
2019-03-31T06:53:37.364Z,9.31
2019-03-31T06:54:37.336Z,9.33
2019-03-31T06:55:37.863Z,9.49
2019-03-31T06:56:37.327Z,9.51
2019-03-31T06:57:37.318Z,9.63
2019-03-31T06:58:37.432Z,9.59
2019-03-31T06:59:37.365Z,9.74
2019-03-31T07:00:37.239Z,9.70
2019-03-31T07:01:37.903Z,9.73
2019-03-31T07:02:37.753Z,9.81
2019-03-31T07:03:37.339Z,9.94
2019-03-31T07:04:37.258Z,9.92
2019-03-31T07:05:37.753Z,9.80
2019-03-31T07:06:37.183Z,9.82
2019-03-31T07:07:37.213Z,9.70
2019-03-31T07:08:37.213Z,9.63
2019-03-31T07:09:37.209Z,9.76
2019-03-31T07:10:37.158Z,9.84
2019-03-31T07:11:37.151Z,9.72
2019-03-31T07:12:37.230Z,9.63
2019-03-31T07:13:37.144Z,9.58
2019-03-31T07:14:37.164Z,9.59
2019-03-31T07:15:37.124Z,9.76
2019-03-31T07:16:37.091Z,9.70
2019-03-31T07:17:37.087Z,9.70
2019-03-31T07:18:37.086Z,9.66
2019-03-31T07:19:37.097Z,9.51
2019-03-31T07:20:37.098Z,9.48
2019-03-31T07:21:37.065Z,9.44
2019-03-31T07:22:37.022Z,9.51
2019-03-31T07:23:37.001Z,9.49
2019-03-31T07:24:37.075Z,9.47
2019-03-31T07:25:37.393Z,9.47
2019-03-31T07:26:37.004Z,9.40
2019-03-31T07:27:37.009Z,9.33
2019-03-31T07:28:37.007Z,9.33
2019-03-31T07:29:36.953Z,9.33
2019-03-31T07:30:36.936Z,9.48
2019-03-31T07:31:36.921Z,9.49
2019-03-31T07:32:36.941Z,9.44
2019-03-31T07:33:36.894Z,9.47
2019-03-31T07:34:36.904Z,9.64
2019-03-31T07:35:38.947Z,9.66
2019-03-31T07:36:36.900Z,9.66
2019-03-31T07:37:47.052Z,9.55
2019-03-31T07:38:39.230Z,9.76
2019-03-31T07:39:37.201Z,9.67
2019-03-31T07:40:37.047Z,9.76
2019-03-31T07:41:36.845Z,9.90
2019-03-31T07:42:36.802Z,9.87
2019-03-31T07:43:36.849Z,9.92
2019-03-31T07:44:37.341Z,9.97
2019-03-31T07:45:36.765Z,9.88
2019-03-31T07:46:36.839Z,9.92
2019-03-31T07:47:36.781Z,9.91
2019-03-31T07:48:36.798Z,9.76
2019-03-31T07:49:36.751Z,9.72
2019-03-31T07:50:36.751Z,9.58
2019-03-31T07:51:37.615Z,9.62
2019-03-31T07:52:36.733Z,9.66
2019-03-31T07:54:55.574Z,9.58
2019-03-31T07:56:04.444Z,9.58
2019-03-31T07:56:55.042Z,9.56
2019-03-31T07:57:55.108Z,9.48
2019-03-31T07:58:55.719Z,9.42
2019-03-31T08:00:18.500Z,9.45
2019-03-31T08:00:55.153Z,9.42
2019-03-31T08:01:55.436Z,9.54
2019-03-31T08:02:55.079Z,9.52
2019-03-31T08:04:06.497Z,9.63
2019-03-31T08:04:55.865Z,9.84
2019-03-31T08:05:55.021Z,9.90
2019-03-31T08:06:54.952Z,9.95
2019-03-31T08:07:54.938Z,10.05
2019-03-31T08:08:54.966Z,10.17
2019-03-31T08:10:04.615Z,10.17
2019-03-31T08:10:54.958Z,10.25
2019-03-31T08:11:54.947Z,10.39
2019-03-31T08:12:54.894Z,10.64
2019-03-31T08:13:55.341Z,10.57
2019-03-31T08:14:54.978Z,10.53
2019-03-31T08:15:54.909Z,10.25
2019-03-31T08:16:54.900Z,10.13
2019-03-31T08:17:54.901Z,10.17
2019-03-31T08:18:54.876Z,10.18
2019-03-31T08:19:54.806Z,9.99
2019-03-31T08:20:54.860Z,10.00
2019-03-31T08:21:54.801Z,10.02
2019-03-31T08:22:57.152Z,9.95
2019-03-31T08:23:54.774Z,9.92
2019-03-31T08:24:54.795Z,9.85
2019-03-31T08:25:54.759Z,9.88
2019-03-31T08:26:54.758Z,9.88
2019-03-31T08:27:54.730Z,9.90
2019-03-31T08:28:54.732Z,10.03
2019-03-31T08:30:00.410Z,9.99
2019-03-31T08:30:55.747Z,9.92
2019-03-31T08:31:54.713Z,9.84
2019-03-31T08:32:54.713Z,9.90
2019-03-31T08:33:54.677Z,9.95
2019-03-31T08:34:54.685Z,10.06
2019-03-31T08:35:54.668Z,10.02
2019-03-31T08:36:54.673Z,10.15
2019-03-31T08:37:54.710Z,10.30
2019-03-31T08:38:54.629Z,10.34
2019-03-31T08:39:54.611Z,10.49
2019-03-31T08:40:54.628Z,10.62
2019-03-31T08:41:54.599Z,10.69
2019-03-31T08:42:54.610Z,10.80
2019-03-31T08:43:54.583Z,10.68
2019-03-31T08:44:55.478Z,10.75
2019-03-31T08:45:54.539Z,10.86
2019-03-31T08:46:54.566Z,10.83
2019-03-31T08:47:54.546Z,10.79
2019-03-31T08:48:54.538Z,10.95
2019-03-31T08:49:54.526Z,10.95
2019-03-31T08:50:54.490Z,10.94
2019-03-31T08:51:54.493Z,10.87
2019-03-31T08:52:54.572Z,10.76
2019-03-31T08:53:54.484Z,10.76
2019-03-31T08:54:54.475Z,10.80
2019-03-31T08:55:54.496Z,10.72
2019-03-31T08:56:55.464Z,10.76
2019-03-31T08:57:54.470Z,10.71
2019-03-31T08:58:54.413Z,10.72
2019-03-31T08:59:54.532Z,10.75
2019-03-31T09:00:54.436Z,10.80
2019-03-31T09:01:54.371Z,10.72
2019-03-31T09:02:54.441Z,10.71
2019-03-31T09:03:54.406Z,10.48
2019-03-31T09:04:54.365Z,10.48
2019-03-31T09:06:01.842Z,10.38
2019-03-31T09:06:57.076Z,10.30
2019-03-31T09:07:55.627Z,10.24
2019-03-31T09:08:54.307Z,10.23
2019-03-31T09:09:54.401Z,10.12
2019-03-31T09:10:54.984Z,10.17
2019-03-31T09:11:54.690Z,10.03
2019-03-31T09:12:54.261Z,9.92
2019-03-31T09:13:54.281Z,9.88
2019-03-31T09:14:54.492Z,9.92
2019-03-31T09:15:54.225Z,9.92
2019-03-31T09:16:54.227Z,9.87
2019-03-31T09:17:54.601Z,9.82
2019-03-31T09:18:54.205Z,9.84
2019-03-31T09:19:54.207Z,9.88
2019-03-31T09:20:54.176Z,9.94
2019-03-31T09:21:54.154Z,9.91
2019-03-31T09:22:55.115Z,9.87
2019-03-31T09:23:54.184Z,9.97
2019-03-31T09:24:55.078Z,9.92
2019-03-31T09:25:54.188Z,9.92
2019-03-31T09:26:54.117Z,9.80
2019-03-31T09:27:54.192Z,9.88
2019-03-31T09:28:54.109Z,9.95
2019-03-31T09:29:54.122Z,9.90
2019-03-31T09:30:54.138Z,9.85
2019-03-31T09:31:54.612Z,9.80
2019-03-31T09:32:54.134Z,9.82
2019-03-31T09:33:54.033Z,9.77
2019-03-31T09:34:54.048Z,9.91
2019-03-31T09:36:15.031Z,9.90
2019-03-31T09:36:55.478Z,9.84
2019-03-31T09:37:54.065Z,9.82
2019-03-31T09:38:54.650Z,9.92
2019-03-31T09:39:55.986Z,10.05
2019-03-31T09:40:54.101Z,9.99
2019-03-31T09:41:54.632Z,9.95
2019-03-31T09:42:56.026Z,9.94
2019-03-31T09:43:54.006Z,9.97
2019-03-31T09:44:53.950Z,10.12
2019-03-31T09:45:56.039Z,9.95
2019-03-31T09:46:54.029Z,9.97
2019-03-31T09:47:53.910Z,10.05
2019-03-31T09:48:54.014Z,10.09
2019-03-31T09:49:54.278Z,10.12
2019-03-31T09:50:56.420Z,10.27
2019-03-31T09:51:53.996Z,10.48
2019-03-31T09:52:54.299Z,10.62
2019-03-31T09:53:54.523Z,10.61
2019-03-31T09:54:54.001Z,10.58
2019-03-31T09:55:53.986Z,10.57
2019-03-31T09:56:53.924Z,10.48
2019-03-31T09:57:54.545Z,10.36
2019-03-31T09:58:53.926Z,10.31
2019-03-31T09:59:54.515Z,10.33
2019-03-31T10:00:53.899Z,10.38
2019-03-31T10:01:53.852Z,10.79
2019-03-31T10:02:53.850Z,11.07
2019-03-31T10:03:53.743Z,11.23
2019-03-31T10:04:55.054Z,11.45
2019-03-31T10:05:53.713Z,11.45
2019-03-31T10:06:53.677Z,11.58
2019-03-31T10:07:53.703Z,11.65
2019-03-31T10:08:53.678Z,11.71
2019-03-31T10:09:53.702Z,11.73
2019-03-31T10:10:53.652Z,11.70
2019-03-31T10:11:53.707Z,11.59
2019-03-31T10:12:53.872Z,11.56
2019-03-31T10:13:53.953Z,11.49
2019-03-31T10:14:54.383Z,11.45
2019-03-31T10:15:53.772Z,11.26
2019-03-31T10:16:53.640Z,11.25
2019-03-31T10:17:53.622Z,11.13
2019-03-31T10:18:53.561Z,10.95
2019-03-31T10:19:53.569Z,10.84
2019-03-31T10:20:53.600Z,10.87
2019-03-31T10:21:53.535Z,10.95
2019-03-31T10:22:53.552Z,11.02
2019-03-31T10:23:53.521Z,11.18
2019-03-31T10:24:53.525Z,11.20
2019-03-31T10:25:53.490Z,11.44
2019-03-31T10:26:53.486Z,11.43
2019-03-31T10:27:53.487Z,11.53
2019-03-31T10:28:53.541Z,11.59
2019-03-31T10:29:53.548Z,11.55
2019-03-31T10:30:53.440Z,11.49
2019-03-31T10:31:54.407Z,11.45
2019-03-31T10:32:54.712Z,11.38
2019-03-31T10:33:53.427Z,11.30
2019-03-31T10:34:53.391Z,11.45
2019-03-31T10:35:53.458Z,11.35
2019-03-31T10:36:53.366Z,11.40
2019-03-31T10:37:54.243Z,11.45
2019-03-31T10:38:53.395Z,11.35
2019-03-31T10:39:53.345Z,11.56
2019-03-31T10:40:53.319Z,11.58
2019-03-31T10:41:53.317Z,11.74
2019-03-31T10:42:55.114Z,11.96
2019-03-31T10:43:54.528Z,11.89
2019-03-31T10:44:54.656Z,12.02
2019-03-31T10:45:53.423Z,12.08
2019-03-31T10:46:54.522Z,12.17
2019-03-31T10:47:54.702Z,12.25
2019-03-31T10:48:53.287Z,12.32
2019-03-31T10:49:53.233Z,12.40
2019-03-31T10:50:53.242Z,12.58
2019-03-31T10:51:53.247Z,12.70
2019-03-31T10:52:53.269Z,12.72
2019-03-31T10:53:53.198Z,12.62
2019-03-31T10:54:53.181Z,12.63
2019-03-31T10:55:53.264Z,12.40
2019-03-31T10:56:53.159Z,12.43
2019-03-31T10:57:54.599Z,12.61
2019-03-31T10:58:53.130Z,12.58
2019-03-31T10:59:53.142Z,12.63
2019-03-31T11:00:53.158Z,12.78
2019-03-31T11:01:53.137Z,12.75
2019-03-31T11:02:53.189Z,12.91
2019-03-31T11:03:53.089Z,12.88
2019-03-31T11:04:53.084Z,13.08
2019-03-31T11:05:53.097Z,13.13
2019-03-31T11:06:59.624Z,13.02
2019-03-31T11:07:54.233Z,12.93
2019-03-31T11:08:53.047Z,12.93
2019-03-31T11:09:53.033Z,12.94
2019-03-31T11:10:53.082Z,12.80
2019-03-31T11:11:53.088Z,12.84
2019-03-31T11:12:53.037Z,12.84
2019-03-31T11:13:53.055Z,12.48
2019-03-31T11:14:55.855Z,12.50
2019-03-31T11:15:53.023Z,12.51
2019-03-31T11:16:52.953Z,12.28
2019-03-31T11:17:52.950Z,12.32
2019-03-31T11:18:53.518Z,12.39
2019-03-31T11:19:52.975Z,12.36
2019-03-31T11:20:52.943Z,12.35
2019-03-31T11:21:52.936Z,12.28
2019-03-31T11:22:52.937Z,12.37
2019-03-31T11:23:53.535Z,12.30
2019-03-31T11:24:52.891Z,12.29
2019-03-31T11:25:52.893Z,12.36
2019-03-31T11:26:52.843Z,12.40
2019-03-31T11:27:55.077Z,12.45
2019-03-31T11:28:52.896Z,12.57
2019-03-31T11:29:54.297Z,12.51
2019-03-31T11:30:52.810Z,12.47
2019-03-31T11:31:52.903Z,12.29
2019-03-31T11:32:54.576Z,12.33
2019-03-31T11:33:52.786Z,12.33
2019-03-31T11:34:52.782Z,12.30
2019-03-31T11:35:52.782Z,12.36
2019-03-31T11:36:57.072Z,12.47
2019-03-31T11:37:52.743Z,12.33
2019-03-31T11:38:52.805Z,12.32
2019-03-31T11:39:53.650Z,12.30
2019-03-31T11:40:52.760Z,12.36
2019-03-31T11:41:53.275Z,12.35
2019-03-31T11:42:52.687Z,12.33
2019-03-31T11:43:52.712Z,12.53
2019-03-31T11:44:52.669Z,12.32
2019-03-31T11:45:52.698Z,12.50
2019-03-31T11:46:52.657Z,12.50
2019-03-31T11:47:52.646Z,12.47
2019-03-31T11:48:52.740Z,12.86
2019-03-31T11:49:52.583Z,12.90
2019-03-31T11:50:53.813Z,12.70
2019-03-31T11:51:52.673Z,12.69
2019-03-31T11:52:52.573Z,12.86
2019-03-31T11:53:52.586Z,12.81
2019-03-31T11:54:52.579Z,12.78
2019-03-31T11:55:52.686Z,12.83
2019-03-31T11:56:52.561Z,12.84
2019-03-31T11:57:52.519Z,12.95
2019-03-31T11:58:52.509Z,13.20
2019-03-31T11:59:52.563Z,13.49
2019-03-31T12:00:52.501Z,13.50
2019-03-31T12:01:52.712Z,13.50
2019-03-31T12:02:52.512Z,13.62
2019-03-31T12:03:52.650Z,13.83
2019-03-31T12:04:52.439Z,13.52
2019-03-31T12:05:52.456Z,13.55
2019-03-31T12:06:53.045Z,13.39
2019-03-31T12:07:52.520Z,13.40
2019-03-31T12:08:52.481Z,13.40
2019-03-31T12:09:52.557Z,13.46
2019-03-31T12:10:54.370Z,13.54
2019-03-31T12:11:52.460Z,13.60
2019-03-31T12:12:52.514Z,13.61
2019-03-31T12:13:52.465Z,13.50
2019-03-31T12:15:00.199Z,13.50
2019-03-31T12:15:54.802Z,13.64
2019-03-31T12:16:52.507Z,13.83
2019-03-31T12:17:53.288Z,13.98
2019-03-31T12:18:53.527Z,14.26
2019-03-31T12:19:52.363Z,14.38
2019-03-31T12:20:52.564Z,14.45
2019-03-31T12:21:52.428Z,14.55
2019-03-31T12:22:52.339Z,14.63
2019-03-31T12:23:52.277Z,14.55
2019-03-31T12:24:52.450Z,14.34
2019-03-31T12:25:53.636Z,14.18
2019-03-31T12:26:52.195Z,14.23
2019-03-31T12:27:52.241Z,14.26
2019-03-31T12:28:53.210Z,14.25
2019-03-31T12:29:52.359Z,15.26
2019-03-31T12:30:52.188Z,15.60
2019-03-31T12:31:52.208Z,16.40
2019-03-31T12:32:53.031Z,17.23
2019-03-31T12:33:52.318Z,17.66
2019-03-31T12:34:52.127Z,17.94
2019-03-31T12:35:52.142Z,18.24
2019-03-31T12:36:52.175Z,18.00
2019-03-31T12:37:52.178Z,17.41
2019-03-31T12:38:53.824Z,16.31
2019-03-31T12:39:52.128Z,15.87
2019-03-31T12:40:52.063Z,15.57
2019-03-31T12:41:52.074Z,15.52
2019-03-31T12:42:53.035Z,15.51
2019-03-31T12:43:52.072Z,15.50
2019-03-31T12:44:52.121Z,15.26
2019-03-31T12:45:53.546Z,15.50
2019-03-31T12:46:56.039Z,15.83
2019-03-31T12:47:52.623Z,15.07
2019-03-31T12:48:51.979Z,14.59
2019-03-31T12:49:52.551Z,14.52
2019-03-31T12:50:52.775Z,15.00
2019-03-31T12:51:55.126Z,15.96
2019-03-31T12:52:53.271Z,15.91
2019-03-31T12:53:52.128Z,15.73
2019-03-31T12:54:51.967Z,16.44
2019-03-31T12:56:00.112Z,16.26
2019-03-31T12:56:54.721Z,16.79
2019-03-31T12:57:52.279Z,16.80
2019-03-31T12:58:51.948Z,17.28
2019-03-31T12:59:53.035Z,17.86
2019-03-31T13:00:52.658Z,16.50
2019-03-31T13:01:51.910Z,14.99
2019-03-31T13:02:53.548Z,13.82
2019-03-31T13:03:51.884Z,13.37
2019-03-31T13:04:52.051Z,13.03
2019-03-31T13:05:51.836Z,13.67
2019-03-31T13:06:51.913Z,14.20
2019-03-31T13:07:56.585Z,14.52